createdAt,value
2022-09-12T00:03:28.368Z,9.57
2022-09-12T00:08:31.193Z,9.52
2022-09-12T00:13:37.320Z,9.50
2022-09-12T00:18:47.063Z,9.50
2022-09-12T00:23:50.912Z,9.51
2022-09-12T00:28:54.204Z,9.49
2022-09-12T00:34:00.851Z,9.50
2022-09-12T00:39:04.894Z,9.49
2022-09-12T00:44:10.670Z,9.47
2022-09-12T00:49:24.300Z,9.48
2022-09-12T00:54:32.928Z,9.50
2022-09-12T00:59:51.345Z,9.51
2022-09-12T01:04:54.395Z,9.51
2022-09-12T01:09:57.589Z,9.50
2022-09-12T01:15:01.006Z,9.49
2022-09-12T01:20:20.713Z,9.47
2022-09-12T01:25:50.396Z,9.42
2022-09-12T01:30:54.416Z,9.36
2022-09-12T01:36:13.841Z,9.35
2022-09-12T01:41:25.780Z,9.34
2022-09-12T01:46:44.028Z,9.29
2022-09-12T01:51:58.989Z,9.27
2022-09-12T01:57:08.958Z,9.28
2022-09-12T02:02:40.837Z,9.28
2022-09-12T02:07:49.648Z,9.24
2022-09-12T02:13:08.593Z,9.19
2022-09-12T02:18:18.766Z,9.19
2022-09-12T02:23:26.655Z,9.20
2022-09-12T02:28:40.638Z,9.24
2022-09-12T02:34:02.161Z,9.27
2022-09-12T02:39:05.136Z,9.28
2022-09-12T02:44:07.979Z,9.33
2022-09-12T02:49:11.067Z,9.37
2022-09-12T02:54:16.635Z,9.42
2022-09-12T02:59:23.628Z,9.48
2022-09-12T03:04:36.157Z,9.56
2022-09-12T03:10:03.762Z,9.59
2022-09-12T03:15:27.799Z,9.61
2022-09-12T03:20:50.988Z,9.63
2022-09-12T03:26:07.519Z,9.70
2022-09-12T03:31:15.800Z,9.95
2022-09-12T03:36:25.643Z,10.25
2022-09-12T03:41:29.442Z,10.42
2022-09-12T03:46:32.992Z,10.55
2022-09-12T03:51:36.106Z,10.67
2022-09-12T03:56:40.536Z,10.73
2022-09-12T04:01:43.232Z,10.79
2022-09-12T04:06:45.989Z,10.84
2022-09-12T04:11:48.717Z,10.87
2022-09-12T04:16:51.540Z,10.87
2022-09-12T04:21:54.377Z,10.84
2022-09-12T04:26:57.318Z,10.87
2022-09-12T04:32:00.082Z,10.92
2022-09-12T04:37:03.392Z,10.97
2022-09-12T04:42:06.374Z,11.04
2022-09-12T04:47:09.150Z,11.09
2022-09-12T04:52:11.922Z,11.14
2022-09-12T04:57:14.648Z,11.24
2022-09-12T05:02:18.260Z,11.40
2022-09-12T05:07:21.103Z,11.56
2022-09-12T05:12:24.016Z,11.74
2022-09-12T05:17:29.782Z,11.92
2022-09-12T05:22:34.620Z,11.94
2022-09-12T05:27:37.361Z,11.90
2022-09-12T05:32:40.091Z,11.97
2022-09-12T05:37:43.417Z,12.12
2022-09-12T05:42:46.248Z,12.24
2022-09-12T05:47:49.976Z,12.36
2022-09-12T05:52:52.766Z,12.51
2022-09-12T05:57:56.184Z,12.60
2022-09-12T06:03:01.496Z,12.72
2022-09-12T06:08:07.179Z,12.83
2022-09-12T06:13:09.990Z,13.01
2022-09-12T06:18:13.163Z,13.25
2022-09-12T06:23:16.044Z,13.52
2022-09-12T06:28:21.288Z,13.74
2022-09-12T06:33:24.174Z,13.92
2022-09-12T06:38:26.947Z,14.09
2022-09-12T06:43:29.807Z,14.32
2022-09-12T06:48:32.656Z,14.52
2022-09-12T06:53:40.635Z,14.61
2022-09-12T06:58:43.876Z,14.83
2022-09-12T07:03:55.927Z,15.13
2022-09-12T07:09:00.234Z,15.46
2022-09-12T07:14:06.370Z,15.74
2022-09-12T07:19:12.080Z,15.93
2022-09-12T07:24:15.019Z,16.10
2022-09-12T07:29:36.872Z,16.12
2022-09-12T07:34:40.956Z,16.11
2022-09-12T07:39:43.792Z,16.13
2022-09-12T07:44:49.101Z,16.23
2022-09-12T07:49:52.767Z,16.10
2022-09-12T07:54:56.793Z,16.02
2022-09-12T08:00:04.092Z,15.94
2022-09-12T08:05:07.643Z,15.80
2022-09-12T08:10:10.719Z,15.73
2022-09-12T08:15:15.487Z,15.88
2022-09-12T08:20:24.281Z,16.05
2022-09-12T08:25:29.619Z,16.36
2022-09-12T08:30:32.537Z,16.38
2022-09-12T08:35:39.762Z,16.38
2022-09-12T08:40:59.324Z,16.56
2022-09-12T08:46:09.165Z,16.52
2022-09-12T08:51:16.083Z,16.57
2022-09-12T08:56:19.456Z,16.68
2022-09-12T09:01:41.536Z,16.69
2022-09-12T09:07:01.343Z,16.61
2022-09-12T09:12:17.913Z,16.53
2022-09-12T09:17:33.954Z,16.63
2022-09-12T09:22:42.734Z,17.07
2022-09-12T09:28:13.765Z,17.46
2022-09-12T09:33:23.863Z,17.76
2022-09-12T09:38:48.623Z,18.27
2022-09-12T09:43:52.059Z,18.47
2022-09-12T09:49:02.807Z,18.48
2022-09-12T09:54:11.388Z,18.06
2022-09-12T09:59:27.983Z,18.03
2022-09-12T10:04:39.240Z,18.03
2022-09-12T10:10:08.136Z,17.77
2022-09-12T10:15:22.000Z,17.75
2022-09-12T10:20:44.349Z,17.77
2022-09-12T10:25:55.225Z,17.90
2022-09-12T10:31:03.370Z,17.93
2022-09-12T10:36:07.995Z,17.85
2022-09-12T10:41:12.402Z,17.77
2022-09-12T10:46:18.552Z,17.80
2022-09-12T10:51:24.439Z,18.09
2022-09-12T10:56:39.580Z,18.26
2022-09-12T11:01:46.073Z,18.43
2022-09-12T11:06:58.062Z,18.57
2022-09-12T11:12:14.583Z,18.67
2022-09-12T11:17:26.142Z,18.76
2022-09-12T11:22:46.734Z,18.46
2022-09-12T11:27:55.449Z,18.10
2022-09-12T11:33:26.640Z,17.85
2022-09-12T11:38:32.057Z,17.75
2022-09-12T11:43:43.903Z,18.13
2022-09-12T11:48:55.969Z,18.58
2022-09-12T11:54:35.786Z,18.43
2022-09-12T12:00:00.562Z,18.12
2022-09-12T12:05:23.796Z,18.08
2022-09-12T12:10:42.382Z,18.14
2022-09-12T12:15:50.610Z,18.26
2022-09-12T12:20:55.811Z,18.32
2022-09-12T12:26:05.438Z,18.10
2022-09-12T12:31:11.230Z,17.89
2022-09-12T12:36:39.276Z,17.81
2022-09-12T12:41:45.666Z,17.65
2022-09-12T12:47:19.988Z,17.46
2022-09-12T12:52:25.615Z,17.58
2022-09-12T12:57:41.774Z,17.96
2022-09-12T13:03:06.734Z,18.14
2022-09-12T13:08:19.978Z,17.99
2022-09-12T13:13:34.315Z,17.68
2022-09-12T13:19:08.737Z,17.36
2022-09-12T13:24:17.295Z,17.18
2022-09-12T13:29:28.336Z,17.00
2022-09-12T13:34:37.292Z,16.99
2022-09-12T13:39:41.140Z,17.16
2022-09-12T13:45:15.986Z,17.50
2022-09-12T13:50:23.931Z,17.92
2022-09-12T13:55:34.338Z,18.07
2022-09-12T14:00:37.998Z,18.01
2022-09-12T14:05:45.073Z,17.79
2022-09-12T14:10:50.538Z,17.51
2022-09-12T14:15:55.876Z,17.24
2022-09-12T14:21:12.855Z,17.06
2022-09-12T14:26:17.868Z,16.84
2022-09-12T14:31:24.801Z,16.60
2022-09-12T14:36:31.213Z,16.36
2022-09-12T14:41:36.224Z,16.35
2022-09-12T14:46:41.673Z,16.38
2022-09-12T14:51:51.710Z,16.32
2022-09-12T14:56:58.535Z,16.20
2022-09-12T15:02:22.407Z,16.13
2022-09-12T15:07:42.230Z,16.09
2022-09-12T15:12:45.205Z,16.10
2022-09-12T15:17:48.191Z,16.08
2022-09-12T15:22:52.342Z,16.06
2022-09-12T15:27:56.539Z,15.99
2022-09-12T15:33:00.199Z,15.92
2022-09-12T15:38:03.006Z,15.83
2022-09-12T15:43:06.225Z,15.92
2022-09-12T15:48:09.787Z,16.24
2022-09-12T15:53:17.156Z,16.08
2022-09-12T15:58:20.130Z,15.92
2022-09-12T16:03:26.531Z,15.78
2022-09-12T16:08:31.603Z,15.61
2022-09-12T16:13:34.389Z,15.62
2022-09-12T16:18:40.037Z,15.45
2022-09-12T16:23:47.222Z,15.28
2022-09-12T16:28:58.590Z,15.11
2022-09-12T16:34:01.325Z,14.92
2022-09-12T16:39:04.238Z,14.74
2022-09-12T16:44:08.172Z,14.56
2022-09-12T16:49:12.093Z,14.42
2022-09-12T16:54:15.804Z,14.29
2022-09-12T16:59:18.524Z,14.16
2022-09-12T17:04:23.558Z,14.01
2022-09-12T17:09:28.235Z,13.84
2022-09-12T17:14:31.474Z,13.66
2022-09-12T17:19:34.205Z,13.49
2022-09-12T17:24:36.980Z,13.33
2022-09-12T17:29:39.734Z,13.21
2022-09-12T17:34:42.588Z,13.10
2022-09-12T17:39:46.442Z,13.01
2022-09-12T17:44:49.816Z,12.88
2022-09-12T17:50:01.681Z,12.73
2022-09-12T17:55:13.543Z,12.55
2022-09-12T18:00:16.792Z,12.41
2022-09-12T18:05:19.560Z,12.30
2022-09-12T18:10:22.526Z,12.20
2022-09-12T18:15:27.113Z,12.09
2022-09-12T18:20:30.613Z,11.96
2022-09-12T18:25:33.429Z,11.85
2022-09-12T18:30:36.168Z,11.87
2022-09-12T18:35:39.119Z,11.98
2022-09-12T18:40:41.862Z,12.03
2022-09-12T18:45:44.629Z,12.02
2022-09-12T18:50:47.634Z,11.99
2022-09-12T18:55:50.590Z,11.92
2022-09-12T19:00:53.530Z,11.83
2022-09-12T19:05:56.985Z,11.72
2022-09-12T19:11:01.873Z,11.61
2022-09-12T19:16:06.698Z,11.52
2022-09-12T19:21:15.180Z,11.43
2022-09-12T19:26:20.531Z,11.35
2022-09-12T19:31:24.642Z,11.25
2022-09-12T19:36:44.245Z,11.19
2022-09-12T19:41:48.387Z,11.13
2022-09-12T19:46:51.247Z,11.06
2022-09-12T19:51:54.172Z,10.98
2022-09-12T19:56:56.991Z,10.93
2022-09-12T20:02:00.083Z,10.84
2022-09-12T20:07:02.953Z,10.73
2022-09-12T20:12:05.876Z,10.65
2022-09-12T20:17:08.961Z,10.59
2022-09-12T20:22:11.643Z,10.50
2022-09-12T20:27:15.301Z,10.40
2022-09-12T20:32:18.741Z,10.35
2022-09-12T20:37:21.510Z,10.29
2022-09-12T20:42:24.219Z,10.23
2022-09-12T20:47:27.001Z,10.20
2022-09-12T20:52:29.707Z,10.17
2022-09-12T20:57:32.464Z,10.17
2022-09-12T21:02:35.245Z,10.16
2022-09-12T21:07:38.109Z,10.13
2022-09-12T21:12:40.773Z,10.04
2022-09-12T21:17:43.851Z,9.95
2022-09-12T21:22:46.646Z,9.88
2022-09-12T21:27:49.407Z,9.80
2022-09-12T21:32:52.114Z,9.70
2022-09-12T21:37:54.832Z,9.63
2022-09-12T21:42:58.438Z,9.61
2022-09-12T21:48:01.628Z,9.60
2022-09-12T21:53:04.329Z,9.61
2022-09-12T21:58:07.060Z,9.60
2022-09-12T22:03:10.906Z,9.59
2022-09-12T22:08:13.640Z,9.53
2022-09-12T22:13:16.360Z,9.46
2022-09-12T22:18:19.549Z,9.41
2022-09-12T22:23:45.463Z,9.35
2022-09-12T22:28:49.267Z,9.25
2022-09-12T22:33:54.818Z,9.18
2022-09-12T22:38:57.849Z,9.12
2022-09-12T22:44:00.536Z,9.05
2022-09-12T22:49:04.879Z,8.98
2022-09-12T22:54:09.540Z,8.97
2022-09-12T22:59:12.244Z,8.98
2022-09-12T23:04:14.969Z,8.95
2022-09-12T23:09:18.097Z,8.90
2022-09-12T23:14:20.809Z,8.83
2022-09-12T23:19:23.577Z,8.73
2022-09-12T23:24:26.224Z,8.65
2022-09-12T23:29:28.892Z,8.61
2022-09-12T23:34:32.782Z,8.59
2022-09-12T23:39:35.517Z,8.53
2022-09-12T23:44:38.197Z,8.46
2022-09-12T23:49:41.015Z,8.41
2022-09-12T23:54:43.685Z,8.39
2022-09-12T23:59:46.413Z,8.34
